createdAt,value
2023-04-07T00:01:06.713Z,7.30
2023-04-07T00:03:33.897Z,7.30
2023-04-07T00:06:00.962Z,7.30
2023-04-07T00:08:27.523Z,7.30
2023-04-07T00:10:54.051Z,7.30
2023-04-07T00:13:23.562Z,7.30
2023-04-07T00:15:50.138Z,7.30
2023-04-07T00:18:16.837Z,7.30
2023-04-07T00:20:43.425Z,7.30
2023-04-07T00:23:09.977Z,7.40
2023-04-07T00:25:36.538Z,7.40
2023-04-07T00:28:03.418Z,7.40
2023-04-07T00:30:29.903Z,7.40
2023-04-07T00:32:56.843Z,7.40
2023-04-07T00:35:23.707Z,7.40
2023-04-07T00:37:50.400Z,7.40
2023-04-07T00:40:17.333Z,7.40
2023-04-07T00:42:43.882Z,7.40
2023-04-07T00:45:11.482Z,7.40
2023-04-07T00:47:38.254Z,7.40
2023-04-07T00:50:05.219Z,7.40
2023-04-07T00:52:35.765Z,7.40
2023-04-07T00:55:02.404Z,7.40
2023-04-07T00:57:29.007Z,7.40
2023-04-07T00:59:56.255Z,7.50
2023-04-07T01:02:22.978Z,7.50
2023-04-07T01:08:16.580Z,7.40
2023-04-07T01:10:50.523Z,7.50
2023-04-07T01:13:24.046Z,7.40
2023-04-07T01:15:52.759Z,7.50
2023-04-07T01:18:24.695Z,7.40
2023-04-07T01:20:52.560Z,7.40
2023-04-07T01:23:27.743Z,7.40
2023-04-07T01:26:01.846Z,7.40
2023-04-07T01:28:34.320Z,7.50
2023-04-07T01:31:01.333Z,7.50
2023-04-07T01:33:30.318Z,7.50
2023-04-07T01:35:58.451Z,7.40
2023-04-07T01:38:26.440Z,7.40
2023-04-07T01:40:54.357Z,7.50
2023-04-07T01:43:21.596Z,7.50
2023-04-07T01:45:48.699Z,7.50
2023-04-07T01:48:15.776Z,7.50
2023-04-07T01:50:43.029Z,7.50
2023-04-07T01:53:09.897Z,7.60
2023-04-07T01:55:36.782Z,7.60
2023-04-07T01:58:06.471Z,7.50
2023-04-07T02:00:34.313Z,7.60
2023-04-07T02:03:21.171Z,7.50
2023-04-07T02:05:49.518Z,7.60
2023-04-07T02:08:16.882Z,7.60
2023-04-07T02:10:43.851Z,7.60
2023-04-07T02:13:13.123Z,7.70
2023-04-07T02:15:40.547Z,7.60
2023-04-07T02:18:07.959Z,7.70
2023-04-07T02:20:35.290Z,7.80
2023-04-07T02:23:01.952Z,7.90
2023-04-07T02:25:29.478Z,7.80
2023-04-07T02:27:57.020Z,7.90
2023-04-07T02:30:23.667Z,8.00
2023-04-07T02:32:50.449Z,8.00
2023-04-07T02:37:47.593Z,8.00
2023-04-07T02:40:14.563Z,8.10
2023-04-07T02:42:41.199Z,8.10
2023-04-07T02:45:08.750Z,8.10
2023-04-07T02:47:36.261Z,8.10
2023-04-07T02:50:03.148Z,8.10
2023-04-07T02:52:29.671Z,8.20
2023-04-07T02:54:56.210Z,8.20
2023-04-07T02:57:22.751Z,8.20
2023-04-07T02:59:49.394Z,8.20
2023-04-07T03:02:16.074Z,8.20
2023-04-07T03:04:42.651Z,8.20
2023-04-07T03:07:09.147Z,8.20
2023-04-07T03:09:35.692Z,8.20
2023-04-07T03:12:02.303Z,8.20
2023-04-07T03:14:28.845Z,8.20
2023-04-07T03:16:56.312Z,8.20
2023-04-07T03:19:22.907Z,8.20
2023-04-07T03:21:49.597Z,8.20
2023-04-07T03:24:16.467Z,8.20
2023-04-07T03:26:42.960Z,8.20
2023-04-07T03:29:09.548Z,8.20
2023-04-07T03:31:37.565Z,8.20
2023-04-07T03:34:04.517Z,8.20
2023-04-07T03:36:31.767Z,8.20
2023-04-07T03:38:58.678Z,8.20
2023-04-07T03:41:25.319Z,8.20
2023-04-07T03:43:51.996Z,8.10
2023-04-07T03:46:21.600Z,8.20
2023-04-07T03:48:48.204Z,8.20
2023-04-07T03:51:15.027Z,8.20
2023-04-07T03:53:41.541Z,8.20
2023-04-07T03:56:08.018Z,8.20
2023-04-07T03:58:34.606Z,8.20
2023-04-07T04:01:01.439Z,8.20
2023-04-07T04:03:28.188Z,8.20
2023-04-07T04:05:54.883Z,8.20
2023-04-07T04:08:21.478Z,8.20
2023-04-07T04:10:48.100Z,8.10
2023-04-07T04:13:14.682Z,8.10
2023-04-07T04:15:42.421Z,8.10
2023-04-07T04:18:09.392Z,8.10
2023-04-07T04:20:37.372Z,8.10
2023-04-07T04:23:04.252Z,8.10
2023-04-07T04:25:30.926Z,8.10
2023-04-07T04:27:57.495Z,8.00
2023-04-07T04:30:24.120Z,8.00
2023-04-07T04:32:50.798Z,8.10
2023-04-07T04:35:17.478Z,8.00
2023-04-07T04:37:44.112Z,8.00
2023-04-07T04:40:11.610Z,8.00
2023-04-07T04:42:38.122Z,8.00
2023-04-07T04:45:04.856Z,8.00
2023-04-07T04:47:31.606Z,8.00
2023-04-07T04:49:58.121Z,8.00
2023-04-07T04:52:24.656Z,8.00
2023-04-07T04:54:51.302Z,7.90
2023-04-07T04:57:17.969Z,7.90
2023-04-07T04:59:44.488Z,7.90
2023-04-07T05:02:13.932Z,7.90
2023-04-07T05:04:40.606Z,7.90
2023-04-07T05:07:07.257Z,7.90
2023-04-07T05:09:33.961Z,7.90
2023-04-07T05:12:01.779Z,7.80
2023-04-07T05:14:28.343Z,7.80
2023-04-07T05:16:54.927Z,7.80
2023-04-07T05:19:21.458Z,7.80
2023-04-07T05:21:48.285Z,7.80
2023-04-07T05:24:14.908Z,7.80
2023-04-07T05:26:41.420Z,7.80
2023-04-07T05:29:08.022Z,7.70
2023-04-07T05:31:37.125Z,7.70
2023-04-07T05:34:03.743Z,7.70
2023-04-07T05:36:31.448Z,7.70
2023-04-07T05:38:58.112Z,7.70
2023-04-07T05:41:24.659Z,7.70
2023-04-07T05:43:51.519Z,7.70
2023-04-07T05:46:18.321Z,7.70
2023-04-07T05:48:45.451Z,7.70
2023-04-07T05:51:11.944Z,7.60
2023-04-07T05:53:38.501Z,7.60
2023-04-07T05:56:05.122Z,7.70
2023-04-07T05:58:31.726Z,7.60
2023-04-07T06:00:58.278Z,7.60
2023-04-07T06:03:25.118Z,7.60
2023-04-07T06:08:42.576Z,7.60
2023-04-07T06:11:09.126Z,7.60
2023-04-07T06:13:35.959Z,7.60
2023-04-07T06:16:02.476Z,7.60
2023-04-07T06:18:29.061Z,7.60
2023-04-07T06:20:55.597Z,7.60
2023-04-07T06:23:22.182Z,7.60
2023-04-07T06:25:52.973Z,7.60
2023-04-07T06:28:19.576Z,7.60
2023-04-07T06:30:46.803Z,7.60
2023-04-07T06:33:13.471Z,7.70
2023-04-07T06:35:41.277Z,7.70
2023-04-07T06:38:08.125Z,7.70
2023-04-07T06:40:34.666Z,7.70
2023-04-07T06:43:01.283Z,7.70
2023-04-07T06:45:27.832Z,7.70
2023-04-07T06:47:54.367Z,7.70
2023-04-07T06:50:22.159Z,7.70
2023-04-07T06:52:48.832Z,7.80
2023-04-07T06:55:15.753Z,7.80
2023-04-07T06:57:42.410Z,7.80
2023-04-07T07:00:09.152Z,7.80
2023-04-07T07:02:35.989Z,7.80
2023-04-07T07:05:04.591Z,7.80
2023-04-07T07:07:31.209Z,7.80
2023-04-07T07:09:57.766Z,7.80
2023-04-07T07:12:24.301Z,7.70
2023-04-07T07:14:50.842Z,7.70
2023-04-07T07:17:17.505Z,7.70
2023-04-07T07:19:44.091Z,7.70
2023-04-07T07:22:10.822Z,7.70
2023-04-07T07:24:37.486Z,7.70
2023-04-07T07:27:04.117Z,7.80
2023-04-07T07:29:31.249Z,7.80
2023-04-07T07:31:57.884Z,7.80
2023-04-07T07:34:24.442Z,7.80
2023-04-07T07:36:51.296Z,7.80
2023-04-07T07:39:18.028Z,7.80
2023-04-07T07:41:44.612Z,7.80
2023-04-07T07:44:11.175Z,7.80
2023-04-07T07:46:37.805Z,7.80
2023-04-07T07:49:05.766Z,7.80
2023-04-07T07:51:32.371Z,7.80
2023-04-07T07:53:58.981Z,7.90
2023-04-07T07:56:25.525Z,7.80
2023-04-07T07:58:52.101Z,7.80
2023-04-07T08:01:18.648Z,7.80
2023-04-07T08:03:45.787Z,7.80
2023-04-07T08:06:24.037Z,7.80
2023-04-07T08:08:50.789Z,7.90
2023-04-07T08:11:17.308Z,7.80
2023-04-07T08:13:46.798Z,7.90
2023-04-07T08:16:13.746Z,7.90
2023-04-07T08:18:40.293Z,7.90
2023-04-07T08:21:07.008Z,7.90
2023-04-07T08:23:33.598Z,8.00
2023-04-07T08:26:00.306Z,8.00
2023-04-07T08:28:26.775Z,8.00
2023-04-07T08:30:53.251Z,8.00
2023-04-07T08:33:19.892Z,8.00
2023-04-07T08:35:47.313Z,8.00
2023-04-07T08:38:13.949Z,8.00
2023-04-07T08:40:40.721Z,8.00
2023-04-07T08:43:10.564Z,8.10
2023-04-07T08:45:39.614Z,8.10
2023-04-07T08:48:13.297Z,8.10
2023-04-07T08:50:42.012Z,8.10
2023-04-07T08:53:09.942Z,8.10
2023-04-07T08:55:36.591Z,8.20
2023-04-07T08:58:03.365Z,8.20
2023-04-07T09:00:29.962Z,8.30
2023-04-07T09:02:56.695Z,8.30
2023-04-07T09:05:25.011Z,8.40
2023-04-07T09:07:51.536Z,8.40
2023-04-07T09:10:18.223Z,8.40
2023-04-07T09:12:44.790Z,8.50
2023-04-07T09:15:11.346Z,8.40
2023-04-07T09:17:37.988Z,8.50
2023-04-07T09:20:04.838Z,8.50
2023-04-07T09:22:38.669Z,8.50
2023-04-07T09:25:18.447Z,8.60
2023-04-07T09:28:01.326Z,8.50
2023-04-07T09:30:28.522Z,8.60
2023-04-07T09:32:55.450Z,8.50
2023-04-07T09:35:23.145Z,8.50
2023-04-07T09:38:06.289Z,8.50
2023-04-07T09:40:34.623Z,8.50
2023-04-07T09:43:01.704Z,8.40
2023-04-07T09:45:34.545Z,8.40
2023-04-07T09:48:06.002Z,8.40
2023-04-07T09:50:34.824Z,8.40
2023-04-07T09:53:03.007Z,8.30
2023-04-07T09:55:30.248Z,8.30
2023-04-07T09:57:57.241Z,8.40
2023-04-07T10:00:24.637Z,8.40
2023-04-07T10:02:51.590Z,8.50
2023-04-07T10:05:21.002Z,8.60
2023-04-07T10:07:48.176Z,8.70
2023-04-07T10:10:15.015Z,8.70
2023-04-07T10:12:41.948Z,8.90
2023-04-07T10:15:09.025Z,8.90
2023-04-07T10:17:39.300Z,8.90
2023-04-07T10:20:07.055Z,9.00
2023-04-07T10:22:35.051Z,9.00
2023-04-07T10:25:07.371Z,9.00
2023-04-07T10:27:36.983Z,9.00
2023-04-07T10:30:05.165Z,9.00
2023-04-07T10:32:31.914Z,8.90
2023-04-07T10:34:59.415Z,9.00
2023-04-07T10:37:26.233Z,9.00
2023-04-07T10:40:12.698Z,9.00
2023-04-07T10:42:39.208Z,9.00
2023-04-07T10:45:06.188Z,9.10
2023-04-07T10:47:32.833Z,9.00
2023-04-07T10:50:14.773Z,8.90
2023-04-07T10:52:41.602Z,8.90
2023-04-07T10:55:26.774Z,8.80
2023-04-07T10:58:12.214Z,8.90
2023-04-07T11:00:38.752Z,8.90
2023-04-07T11:03:15.210Z,9.00
2023-04-07T11:05:42.083Z,9.00
2023-04-07T11:08:08.703Z,9.00
2023-04-07T11:10:35.676Z,9.00
2023-04-07T11:13:06.793Z,9.10
2023-04-07T11:15:40.478Z,9.10
2023-04-07T11:18:07.514Z,9.20
2023-04-07T11:20:48.350Z,9.30
2023-04-07T11:23:18.342Z,9.30
2023-04-07T11:25:46.685Z,9.40
2023-04-07T11:28:13.750Z,9.50
2023-04-07T11:30:45.397Z,9.50
2023-04-07T11:33:15.927Z,9.50
2023-04-07T11:35:52.495Z,9.50
2023-04-07T11:38:24.327Z,9.50
2023-04-07T11:40:58.529Z,9.40
2023-04-07T11:43:28.210Z,9.40
2023-04-07T11:46:14.417Z,9.40
2023-04-07T11:48:41.688Z,9.20
2023-04-07T11:51:20.052Z,9.10
2023-04-07T11:53:50.129Z,9.10
2023-04-07T11:56:17.494Z,9.20
2023-04-07T11:58:47.818Z,9.40
2023-04-07T12:01:16.316Z,9.30
2023-04-07T12:03:57.305Z,9.50
2023-04-07T12:06:29.079Z,9.40
2023-04-07T12:08:55.795Z,9.30
2023-04-07T12:11:22.633Z,9.30
2023-04-07T12:13:49.477Z,9.30
2023-04-07T12:16:16.501Z,9.20
2023-04-07T12:18:43.700Z,9.30
2023-04-07T12:21:10.275Z,9.30
2023-04-07T12:23:36.927Z,9.30
2023-04-07T12:26:03.481Z,9.50
2023-04-07T12:28:30.503Z,9.60
2023-04-07T12:30:57.145Z,9.70
2023-04-07T12:33:23.864Z,9.50
2023-04-07T12:35:50.541Z,9.40
2023-04-07T12:38:17.157Z,9.50
2023-04-07T12:40:43.932Z,9.50
2023-04-07T12:43:10.564Z,9.70
2023-04-07T12:45:37.276Z,9.80
2023-04-07T12:48:04.308Z,10.00
2023-04-07T12:50:31.081Z,10.00
2023-04-07T12:52:59.768Z,10.00
2023-04-07T12:55:26.419Z,10.10
2023-04-07T12:57:52.991Z,10.30
2023-04-07T13:00:19.540Z,10.40
2023-04-07T13:02:46.356Z,10.20
2023-04-07T13:05:13.016Z,9.90
2023-04-07T13:07:39.774Z,10.00
2023-04-07T13:10:08.185Z,9.90
2023-04-07T13:12:35.075Z,9.80
2023-04-07T13:15:02.538Z,9.70
2023-04-07T13:17:29.497Z,9.70
2023-04-07T13:19:56.377Z,9.70
2023-04-07T13:22:24.669Z,9.70
2023-04-07T13:24:51.489Z,9.80
2023-04-07T13:27:18.144Z,9.90
2023-04-07T13:29:44.772Z,9.90
2023-04-07T13:32:15.582Z,10.00
2023-04-07T13:34:42.577Z,10.00
2023-04-07T13:37:09.369Z,10.00
2023-04-07T13:39:36.121Z,10.10
2023-04-07T13:42:02.912Z,10.10
2023-04-07T13:44:29.508Z,10.30
2023-04-07T13:46:56.697Z,10.30
2023-04-07T13:49:23.399Z,10.30
2023-04-07T13:51:49.947Z,10.30
2023-04-07T13:54:17.173Z,10.40
2023-04-07T13:56:44.085Z,10.60
2023-04-07T13:59:10.965Z,10.60
2023-04-07T14:01:39.221Z,10.70
2023-04-07T14:04:06.382Z,10.70
2023-04-07T14:06:33.354Z,10.60
2023-04-07T14:08:59.929Z,10.70
2023-04-07T14:11:27.170Z,10.80
2023-04-07T14:13:54.853Z,11.10
2023-04-07T14:16:21.627Z,11.30
2023-04-07T14:18:49.395Z,11.10
2023-04-07T14:21:16.036Z,10.90
2023-04-07T14:23:42.623Z,10.70
2023-04-07T14:26:09.928Z,10.70
2023-04-07T14:28:36.681Z,10.50
2023-04-07T14:31:03.297Z,10.60
2023-04-07T14:33:30.328Z,10.60
2023-04-07T14:35:57.569Z,10.70
2023-04-07T14:38:25.706Z,10.80
2023-04-07T14:40:52.704Z,11.00
2023-04-07T14:43:19.279Z,10.90
2023-04-07T14:45:46.042Z,11.00
2023-04-07T14:48:13.449Z,11.40
2023-04-07T14:50:40.414Z,11.20
2023-04-07T14:53:07.071Z,11.10
2023-04-07T14:55:34.358Z,11.00
2023-04-07T14:58:00.890Z,11.10
2023-04-07T15:00:28.714Z,10.60
2023-04-07T15:02:55.838Z,10.70
2023-04-07T15:05:22.980Z,10.40
2023-04-07T15:07:52.558Z,10.40
2023-04-07T15:10:20.007Z,10.40
2023-04-07T15:12:47.395Z,10.50
2023-04-07T15:15:14.507Z,10.40
2023-04-07T15:17:44.627Z,10.40
2023-04-07T15:20:13.121Z,10.30
2023-04-07T15:22:40.085Z,10.00
2023-04-07T15:25:06.895Z,10.00
2023-04-07T15:27:33.867Z,10.00
2023-04-07T15:30:00.837Z,10.10
2023-04-07T15:32:27.441Z,10.10
2023-04-07T15:34:54.152Z,10.20
2023-04-07T15:37:20.748Z,10.20
2023-04-07T15:39:48.119Z,10.30
2023-04-07T15:42:14.715Z,10.30
2023-04-07T15:44:41.427Z,10.30
2023-04-07T15:47:10.791Z,10.20
2023-04-07T15:49:38.869Z,10.20
2023-04-07T15:52:05.801Z,10.20
2023-04-07T15:54:32.507Z,10.10
2023-04-07T15:56:59.118Z,10.00
2023-04-07T15:59:26.582Z,10.10
2023-04-07T16:01:53.432Z,10.10
2023-04-07T16:04:20.125Z,10.00
2023-04-07T16:06:46.667Z,9.90
2023-04-07T16:09:13.389Z,9.90
2023-04-07T16:11:39.909Z,9.80
2023-04-07T16:14:08.440Z,9.70
2023-04-07T16:16:36.991Z,9.70
2023-04-07T16:19:03.650Z,9.50
2023-04-07T16:21:31.298Z,9.40
2023-04-07T16:23:57.871Z,9.40
2023-04-07T16:26:24.416Z,9.40
2023-04-07T16:28:50.962Z,9.40
2023-04-07T16:31:17.523Z,9.40
2023-04-07T16:33:44.066Z,9.40
2023-04-07T16:36:10.598Z,9.40
2023-04-07T16:38:37.176Z,9.40
2023-04-07T16:41:04.983Z,9.40
2023-04-07T16:43:31.786Z,9.40
2023-04-07T16:46:00.032Z,9.50
2023-04-07T16:48:26.909Z,9.50
2023-04-07T16:50:53.513Z,9.50
2023-04-07T16:53:21.260Z,9.40
2023-04-07T16:55:48.235Z,9.50
2023-04-07T16:58:18.946Z,9.40
2023-04-07T17:00:46.253Z,9.40
2023-04-07T17:03:16.278Z,9.40
2023-04-07T17:05:44.530Z,9.50
2023-04-07T17:08:11.624Z,9.50
2023-04-07T17:10:38.140Z,9.50
2023-04-07T17:13:04.645Z,9.50
2023-04-07T17:15:31.285Z,9.50
2023-04-07T17:17:58.562Z,9.50
2023-04-07T17:20:25.304Z,9.50
2023-04-07T17:22:52.142Z,9.50
2023-04-07T17:25:19.168Z,9.50
2023-04-07T17:27:47.925Z,9.50
2023-04-07T17:30:14.608Z,9.60
2023-04-07T17:32:41.420Z,9.60
2023-04-07T17:35:08.132Z,9.60
2023-04-07T17:37:34.875Z,9.50
2023-04-07T17:40:01.754Z,9.60
2023-04-07T17:42:29.767Z,9.60
2023-04-07T17:44:56.717Z,9.60
2023-04-07T17:47:24.302Z,9.60
2023-04-07T17:49:50.984Z,9.60
2023-04-07T17:52:17.694Z,9.60
2023-04-07T17:54:44.342Z,9.60
2023-04-07T17:57:11.552Z,9.60
2023-04-07T17:59:38.193Z,9.60
2023-04-07T18:02:10.164Z,9.60
2023-04-07T18:04:37.599Z,9.60
2023-04-07T18:07:05.066Z,9.60
2023-04-07T18:09:32.377Z,9.70
2023-04-07T18:11:59.029Z,9.60
2023-04-07T18:14:25.967Z,9.50
2023-04-07T18:16:54.529Z,9.50
2023-04-07T18:19:22.823Z,9.50
2023-04-07T18:21:51.683Z,9.50
2023-04-07T18:24:20.529Z,9.50
2023-04-07T18:26:47.806Z,9.50
2023-04-07T18:29:14.777Z,9.50
2023-04-07T18:31:44.558Z,9.40
2023-04-07T18:34:11.563Z,9.50
2023-04-07T18:36:40.633Z,9.40
2023-04-07T18:39:21.844Z,9.40
2023-04-07T18:41:48.579Z,9.40
2023-04-07T18:44:15.122Z,9.40
2023-04-07T18:46:41.941Z,9.40
2023-04-07T18:49:08.620Z,9.40
2023-04-07T18:51:35.179Z,9.40
2023-04-07T18:54:01.734Z,9.40
2023-04-07T18:56:28.479Z,9.40
2023-04-07T18:58:55.246Z,9.30
2023-04-07T19:01:22.103Z,9.30
2023-04-07T19:03:49.106Z,9.40
2023-04-07T19:06:16.443Z,9.30
2023-04-07T19:08:43.051Z,9.30
2023-04-07T19:11:10.170Z,9.30
2023-04-07T19:13:36.807Z,9.30
2023-04-07T19:16:03.558Z,9.40
2023-04-07T19:18:31.771Z,9.40
2023-04-07T19:20:58.559Z,9.40
2023-04-07T19:23:25.365Z,9.40
2023-04-07T19:25:51.935Z,9.40
2023-04-07T19:28:18.651Z,9.40
2023-04-07T19:30:45.318Z,9.40
2023-04-07T19:33:12.089Z,9.40
2023-04-07T19:35:41.497Z,9.40
2023-04-07T19:38:09.966Z,9.40
2023-04-07T19:40:36.636Z,9.30
2023-04-07T19:43:03.318Z,9.30
2023-04-07T19:45:30.006Z,9.30
2023-04-07T19:47:56.937Z,9.30
2023-04-07T19:50:23.701Z,9.30
2023-04-07T19:52:53.140Z,9.30
2023-04-07T19:55:19.884Z,9.30
2023-04-07T19:57:47.087Z,9.30
2023-04-07T20:00:13.914Z,9.20
2023-04-07T20:02:40.921Z,9.20
2023-04-07T20:05:07.788Z,9.10
2023-04-07T20:07:34.459Z,9.10
2023-04-07T20:10:01.201Z,9.10
2023-04-07T20:12:27.819Z,9.10
2023-04-07T20:14:54.532Z,9.10
2023-04-07T20:17:21.370Z,9.10
2023-04-07T20:19:48.007Z,9.10
2023-04-07T20:22:14.625Z,9.10
2023-04-07T20:24:41.249Z,9.20
2023-04-07T20:27:07.864Z,9.10
2023-04-07T20:29:34.488Z,9.10
2023-04-07T20:32:01.014Z,9.00
2023-04-07T20:34:27.621Z,9.00
2023-04-07T20:36:54.278Z,9.10
2023-04-07T20:39:20.840Z,9.00
2023-04-07T20:41:47.702Z,9.00
2023-04-07T20:44:14.262Z,9.00
2023-04-07T20:46:41.022Z,9.00
2023-04-07T20:49:08.016Z,9.00
2023-04-07T20:51:36.557Z,8.90
2023-04-07T20:54:03.618Z,9.00
2023-04-07T20:56:30.205Z,9.00
2023-04-07T20:58:56.790Z,8.90
2023-04-07T21:01:23.441Z,9.00
2023-04-07T21:03:50.059Z,8.90
2023-04-07T21:06:16.582Z,8.90
2023-04-07T21:08:43.138Z,8.90
2023-04-07T21:11:09.751Z,8.90
2023-04-07T21:13:36.285Z,8.90
2023-04-07T21:16:04.891Z,8.90
2023-04-07T21:18:31.925Z,8.90
2023-04-07T21:20:59.583Z,8.90
2023-04-07T21:23:26.329Z,8.80
2023-04-07T21:25:52.851Z,8.80
2023-04-07T21:28:19.400Z,8.80
2023-04-07T21:30:46.258Z,8.90
2023-04-07T21:33:14.154Z,8.90
2023-04-07T21:35:40.831Z,8.90
2023-04-07T21:38:07.404Z,8.90
2023-04-07T21:40:34.030Z,8.90
2023-04-07T21:43:00.674Z,8.90
2023-04-07T21:45:27.950Z,8.90
2023-04-07T21:47:57.672Z,8.90
2023-04-07T21:50:25.361Z,8.80
2023-04-07T21:52:51.962Z,8.80
2023-04-07T21:55:21.605Z,8.90
2023-04-07T21:57:48.402Z,8.90
2023-04-07T22:00:16.476Z,8.90
2023-04-07T22:02:43.599Z,8.80
2023-04-07T22:05:10.737Z,8.80
2023-04-07T22:07:37.387Z,8.80
2023-04-07T22:10:04.983Z,8.80
2023-04-07T22:12:31.500Z,8.80
2023-04-07T22:14:58.226Z,8.80
2023-04-07T22:17:25.493Z,8.80
2023-04-07T22:19:52.083Z,8.90
2023-04-07T22:22:18.770Z,8.80
2023-04-07T22:24:45.379Z,8.80
2023-04-07T22:27:11.955Z,8.80
2023-04-07T22:29:38.588Z,8.80
2023-04-07T22:32:05.306Z,8.80
2023-04-07T22:34:31.930Z,8.70
2023-04-07T22:36:58.575Z,8.70
2023-04-07T22:39:25.190Z,8.70
2023-04-07T22:41:51.722Z,8.70
2023-04-07T22:44:18.364Z,8.80
2023-04-07T22:46:44.986Z,8.80
2023-04-07T22:49:11.563Z,8.80
2023-04-07T22:51:38.193Z,8.80
2023-04-07T22:54:04.771Z,8.80
2023-04-07T22:56:31.641Z,8.80
2023-04-07T22:59:05.407Z,8.70
2023-04-07T23:01:32.749Z,8.70
2023-04-07T23:03:59.662Z,8.70
2023-04-07T23:06:28.439Z,8.70
2023-04-07T23:08:55.677Z,8.60
2023-04-07T23:11:22.604Z,8.70
2023-04-07T23:13:49.503Z,8.70
2023-04-07T23:16:16.369Z,8.70
2023-04-07T23:18:43.119Z,8.70
2023-04-07T23:21:09.890Z,8.70
2023-04-07T23:23:36.772Z,8.70
2023-04-07T23:26:03.306Z,8.70
2023-04-07T23:28:29.945Z,8.70
2023-04-07T23:30:57.047Z,8.70
2023-04-07T23:33:23.815Z,8.80
2023-04-07T23:35:50.646Z,8.70
2023-04-07T23:38:17.313Z,8.70
2023-04-07T23:40:43.807Z,8.70
2023-04-07T23:43:10.803Z,8.70
2023-04-07T23:45:37.490Z,8.70
2023-04-07T23:48:04.167Z,8.60
2023-04-07T23:50:30.936Z,8.70
2023-04-07T23:52:57.487Z,8.70
2023-04-07T23:55:24.182Z,8.70
2023-04-07T23:57:50.899Z,8.70
